Time;durP1;ratioP1;P1;durP2;ratioP2;P2;SDS_P1;SDS_P2;PMS_P1;PMS_P2;Temp;Humidity;BMP_temperature;BMP_pressure;BME280_temperature;BME280_humidity;BME280_pressure;Samples;Min_cycle;Max_cycle;Signal;HPM_P1;HPM_P2
2022/09/24 00:00:27;;;;;;;;;;;17.90;83.50;;;;;;6095020;23;19901;-74
2022/09/24 00:02:54;;;;;;;;;;;17.90;83.40;;;;;;6070823;23;19956;-75
2022/09/24 00:05:21;;;;;;;;;;;18.00;82.90;;;;;;6070360;23;19905;-75
2022/09/24 00:07:47;;;;;;;;;;;18.00;82.30;;;;;;6094888;23;19901;-73
2022/09/24 00:10:14;;;;;;;;;;;17.80;82.10;;;;;;6069507;23;20214;-74
2022/09/24 00:12:40;;;;;;;;;;;17.80;82.70;;;;;;6094863;23;19925;-73
2022/09/24 00:15:07;;;;;;;;;;;17.80;81.50;;;;;;6095412;23;19967;-75
2022/09/24 00:17:34;;;;;;;;;;;17.70;81.40;;;;;;6093732;23;19907;-74
2022/09/24 00:20:01;;;;;;;;;;;17.50;82.10;;;;;;6116141;23;19980;-73
2022/09/24 00:22:27;;;;;;;;;;;17.40;82.30;;;;;;6123279;23;19909;-74
2022/09/24 00:27:38;;;;;;;;;;;17.50;82.90;;;;;;6124582;23;19908;-74
2022/09/24 00:30:05;;;;;;;;;;;17.60;82.10;;;;;;6124417;23;20313;-73
2022/09/24 00:32:31;;;;;;;;;;;17.70;81.90;;;;;;6125291;23;20333;-72
2022/09/24 00:34:58;;;;;;;;;;;17.70;81.20;;;;;;6124341;23;19909;-74
2022/09/24 00:37:27;;;;;;;;;;;17.70;81.50;;;;;;6124896;23;20380;-74
2022/09/24 00:39:53;;;;;;;;;;;17.70;81.00;;;;;;6124354;23;19911;-75
2022/09/24 00:42:21;;;;;;;;;;;17.70;80.30;;;;;;6124674;23;19908;-74
2022/09/24 00:44:51;;;;;;;;;;;17.70;81.10;;;;;;6125217;23;19964;-73
2022/09/24 00:47:29;;;;;;;;;;;17.80;81.20;;;;;;6121824;23;19905;-74
2022/09/24 00:50:04;;;;;;;;;;;17.80;81.40;;;;;;6097721;23;19908;-74
2022/09/24 00:52:32;;;;;;;;;;;17.70;80.70;;;;;;6124799;23;19913;-73
2022/09/24 00:54:59;;;;;;;;;;;17.70;80.50;;;;;;6097586;23;19909;-72
2022/09/24 00:57:25;;;;;;;;;;;17.80;81.40;;;;;;6123561;23;19931;-71
2022/09/24 00:59:54;;;;;;;;;;;17.80;79.60;;;;;;6098996;23;19900;-73
2022/09/24 01:02:20;;;;;;;;;;;17.70;79.80;;;;;;6124298;23;19931;-71
2022/09/24 01:04:47;;;;;;;;;;;17.80;79.90;;;;;;6099190;23;19905;-72
2022/09/24 01:07:13;;;;;;;;;;;17.80;80.00;;;;;;6124212;23;19900;-72
2022/09/24 01:09:40;;;;;;;;;;;18.00;81.20;;;;;;6124438;23;20416;-71
2022/09/24 01:12:13;;;;;;;;;;;18.00;79.20;;;;;;6125217;23;19912;-71
2022/09/24 01:14:58;;;;;;;;;;;18.00;78.60;;;;;;6124295;23;19972;-71
2022/09/24 01:17:34;;;;;;;;;;;17.90;78.50;;;;;;6124305;23;20377;-72
2022/09/24 01:20:10;;;;;;;;;;;17.90;78.10;;;;;;6124569;23;19920;-72
2022/09/24 01:23:06;;;;;;;;;;;17.90;78.60;;;;;;6098843;23;19924;-71
2022/09/24 01:25:33;;;;;;;;;;;18.00;76.70;;;;;;6099699;23;19959;-71
2022/09/24 01:28:18;;;;;;;;;;;18.00;77.10;;;;;;6123762;23;19995;-71
2022/09/24 01:30:46;;;;;;;;;;;18.00;75.90;;;;;;6124344;23;19907;-71
2022/09/24 01:33:13;;;;;;;;;;;17.80;74.80;;;;;;6098521;23;19980;-70
2022/09/24 01:35:43;;;;;;;;;;;17.70;74.90;;;;;;6124159;23;20213;-70
2022/09/24 01:38:17;;;;;;;;;;;17.70;74.10;;;;;;6098820;23;19908;-71
2022/09/24 01:40:44;;;;;;;;;;;17.70;74.50;;;;;;6124398;23;19947;-70
2022/09/24 01:43:11;;;;;;;;;;;17.70;73.90;;;;;;6097875;23;19931;-71
2022/09/24 01:45:37;;;;;;;;;;;17.90;73.80;;;;;;6098908;23;19909;-70
2022/09/24 01:48:04;;;;;;;;;;;18.00;74.00;;;;;;6097815;23;20232;-69
2022/09/24 01:50:32;;;;;;;;;;;17.80;73.10;;;;;;6097795;23;19900;-72
2022/09/24 01:53:01;;;;;;;;;;;17.70;73.80;;;;;;6098595;23;19901;-72
2022/09/24 01:55:28;;;;;;;;;;;17.80;74.20;;;;;;6123780;23;19988;-71
2022/09/24 01:58:15;;;;;;;;;;;18.00;75.80;;;;;;6098759;23;19900;-71
2022/09/24 02:00:43;;;;;;;;;;;18.00;75.20;;;;;;6104853;23;19901;-71
2022/09/24 02:03:09;;;;;;;;;;;17.80;73.90;;;;;;6098064;23;19901;-71
2022/09/24 02:05:37;;;;;;;;;;;17.80;76.20;;;;;;6124377;23;20248;-72
2022/09/24 02:08:07;;;;;;;;;;;17.70;76.60;;;;;;6124466;23;19955;-72
2022/09/24 02:10:36;;;;;;;;;;;17.70;76.10;;;;;;6122876;23;20030;-71
2022/09/24 02:13:04;;;;;;;;;;;17.70;75.80;;;;;;6095402;23;19904;-71
2022/09/24 02:15:32;;;;;;;;;;;17.50;76.30;;;;;;6094931;23;19916;-71
2022/09/24 02:17:59;;;;;;;;;;;17.40;76.50;;;;;;6117926;23;20309;-72
2022/09/24 02:20:26;;;;;;;;;;;17.30;76.50;;;;;;6095218;23;19917;-72
2022/09/24 02:22:52;;;;;;;;;;;17.30;78.00;;;;;;6094745;23;20292;-73
2022/09/24 02:25:23;;;;;;;;;;;17.30;76.90;;;;;;6094937;23;19901;-73
2022/09/24 02:27:50;;;;;;;;;;;17.30;78.40;;;;;;6095835;23;20592;-73
2022/09/24 02:30:16;;;;;;;;;;;17.30;76.20;;;;;;6121310;23;20324;-73
2022/09/24 02:32:43;;;;;;;;;;;17.30;76.30;;;;;;6121030;23;19928;-72
2022/09/24 02:35:10;;;;;;;;;;;17.30;75.70;;;;;;6095379;23;19916;-74
2022/09/24 02:37:40;;;;;;;;;;;17.20;75.20;;;;;;6121191;23;19947;-73
2022/09/24 02:40:07;;;;;;;;;;;17.30;75.80;;;;;;6123340;23;19927;-72
2022/09/24 02:42:34;;;;;;;;;;;17.20;74.60;;;;;;6096868;23;19956;-74
2022/09/24 02:45:03;;;;;;;;;;;17.20;76.00;;;;;;6121718;23;19924;-72
2022/09/24 02:47:29;;;;;;;;;;;17.20;75.80;;;;;;6120431;23;19940;-71
2022/09/24 02:49:56;;;;;;;;;;;17.20;75.60;;;;;;6121162;23;19926;-72
2022/09/24 02:52:23;;;;;;;;;;;17.20;74.70;;;;;;6120676;23;19908;-72
2022/09/24 02:54:49;;;;;;;;;;;17.20;76.00;;;;;;6122738;23;19912;-73
2022/09/24 02:57:17;;;;;;;;;;;17.20;76.30;;;;;;6122132;23;20232;-72
2022/09/24 02:59:44;;;;;;;;;;;17.30;76.40;;;;;;6121913;23;20031;-73
2022/09/24 03:02:11;;;;;;;;;;;17.30;75.50;;;;;;6121548;23;20344;-72
2022/09/24 03:04:38;;;;;;;;;;;17.30;75.10;;;;;;6121595;23;19944;-71
2022/09/24 03:07:04;;;;;;;;;;;17.30;74.60;;;;;;6122790;23;19939;-72
2022/09/24 03:09:31;;;;;;;;;;;17.20;75.10;;;;;;6095740;23;20229;-73
2022/09/24 03:11:59;;;;;;;;;;;17.20;75.30;;;;;;6118509;23;20376;-71
2022/09/24 03:14:26;;;;;;;;;;;17.20;75.30;;;;;;6120117;23;19988;-72
2022/09/24 03:16:52;;;;;;;;;;;17.10;74.30;;;;;;6117618;23;20410;-73
2022/09/24 03:19:20;;;;;;;;;;;17.10;75.70;;;;;;6096177;23;19917;-73
2022/09/24 03:21:46;;;;;;;;;;;17.20;75.10;;;;;;6122629;23;19979;-71
2022/09/24 03:24:13;;;;;;;;;;;17.10;75.00;;;;;;6122079;23;20321;-73
2022/09/24 03:26:40;;;;;;;;;;;17.00;74.80;;;;;;6122797;23;19904;-72
2022/09/24 03:29:08;;;;;;;;;;;17.00;75.20;;;;;;6096584;23;19909;-69
2022/09/24 03:31:34;;;;;;;;;;;17.00;74.90;;;;;;6121389;23;20319;-69
2022/09/24 03:34:01;;;;;;;;;;;17.00;75.00;;;;;;6122323;23;19905;-70
2022/09/24 03:36:27;;;;;;;;;;;17.10;74.90;;;;;;6121836;23;19928;-71
2022/09/24 03:38:55;;;;;;;;;;;17.20;74.40;;;;;;6121294;23;19909;-71
2022/09/24 03:41:22;;;;;;;;;;;17.20;74.90;;;;;;6122522;23;20244;-71
2022/09/24 03:43:48;;;;;;;;;;;17.30;73.50;;;;;;6096377;23;19909;-72
2022/09/24 03:46:16;;;;;;;;;;;17.20;73.90;;;;;;6096025;23;19932;-72
2022/09/24 03:48:42;;;;;;;;;;;17.20;74.30;;;;;;6122335;23;19909;-72
2022/09/24 03:51:12;;;;;;;;;;;17.20;75.10;;;;;;6122619;23;20000;-72
2022/09/24 03:53:39;;;;;;;;;;;17.20;75.40;;;;;;6095957;23;19905;-73
2022/09/24 03:56:06;;;;;;;;;;;17.30;75.60;;;;;;6122196;23;19912;-73
2022/09/24 05:44:47;;;;;;;;;;;17.00;79.20;;;;;;6108100;23;19971;-76
2022/09/24 05:47:15;;;;;;;;;;;17.00;79.50;;;;;;6090794;23;19909;-73
2022/09/24 05:49:41;;;;;;;;;;;17.10;78.80;;;;;;6065156;23;19901;-75
2022/09/24 05:52:08;;;;;;;;;;;17.00;79.60;;;;;;6091479;23;19901;-76
2022/09/24 05:54:35;;;;;;;;;;;17.00;79.10;;;;;;6090540;23;20392;-73
2022/09/24 05:57:01;;;;;;;;;;;17.00;80.90;;;;;;6090693;23;19960;-72
2022/09/24 05:59:28;;;;;;;;;;;16.90;78.30;;;;;;6090248;23;19912;-73
2022/09/24 06:01:54;;;;;;;;;;;16.80;77.80;;;;;;6091715;23;19912;-75
2022/09/24 06:04:21;;;;;;;;;;;16.80;79.50;;;;;;6092384;23;19909;-73
2022/09/24 06:06:48;;;;;;;;;;;16.70;82.40;;;;;;6091796;23;20750;-75
2022/09/24 06:09:14;;;;;;;;;;;16.60;84.10;;;;;;6065292;23;19905;-75
2022/09/24 06:11:41;;;;;;;;;;;16.50;85.20;;;;;;6091947;23;19927;-76
2022/09/24 06:14:08;;;;;;;;;;;16.50;85.40;;;;;;6091460;23;19905;-78
2022/09/24 06:16:35;;;;;;;;;;;16.40;83.60;;;;;;6089665;23;19917;-77
2022/09/24 06:19:01;;;;;;;;;;;16.40;83.60;;;;;;6092720;23;19905;-77
2022/09/24 06:21:28;;;;;;;;;;;16.50;85.30;;;;;;6092860;23;19912;-76
2022/09/24 06:23:54;;;;;;;;;;;16.60;85.30;;;;;;6093185;23;20012;-77
2022/09/24 06:26:21;;;;;;;;;;;16.60;85.70;;;;;;6092195;23;20334;-76
2022/09/24 06:28:48;;;;;;;;;;;16.70;84.60;;;;;;6089862;23;19908;-76
2022/09/24 06:31:14;;;;;;;;;;;16.70;83.90;;;;;;6092555;23;19901;-75
2022/09/24 06:33:41;;;;;;;;;;;16.70;84.00;;;;;;6091616;23;19905;-77
2022/09/24 06:36:08;;;;;;;;;;;16.80;84.00;;;;;;6092541;23;19917;-78
2022/09/24 06:38:34;;;;;;;;;;;16.80;84.00;;;;;;6067476;23;19909;-77
2022/09/24 06:41:02;;;;;;;;;;;16.80;83.40;;;;;;6091620;23;20613;-79
2022/09/24 06:43:29;;;;;;;;;;;16.90;84.30;;;;;;6092130;23;20244;-78
2022/09/24 06:45:56;;;;;;;;;;;16.90;84.00;;;;;;6112270;23;19948;-78
2022/09/24 06:48:23;;;;;;;;;;;16.80;82.50;;;;;;6094509;23;20412;-77
2022/09/24 06:50:50;;;;;;;;;;;16.80;83.40;;;;;;6120794;23;19912;-76
2022/09/24 06:53:17;;;;;;;;;;;16.80;83.50;;;;;;6121375;23;19919;-77
2022/09/24 06:55:44;;;;;;;;;;;16.80;83.40;;;;;;6095922;23;20059;-75
2022/09/24 06:58:11;;;;;;;;;;;16.80;82.20;;;;;;6094523;23;19904;-73
2022/09/24 07:00:38;;;;;;;;;;;16.80;83.00;;;;;;6071671;23;19904;-73
2022/09/24 07:03:05;;;;;;;;;;;16.80;84.00;;;;;;6121927;23;20003;-73
2022/09/24 07:05:32;;;;;;;;;;;16.70;84.30;;;;;;6122144;23;20426;-75
2022/09/24 07:07:58;;;;;;;;;;;16.70;84.40;;;;;;6121334;23;19914;-76
2022/09/24 07:10:26;;;;;;;;;;;16.70;85.20;;;;;;6121867;23;19901;-77
2022/09/24 07:12:53;;;;;;;;;;;16.50;87.30;;;;;;6122114;23;19905;-77
2022/09/24 07:15:19;;;;;;;;;;;16.40;88.10;;;;;;6120676;23;19922;-79
2022/09/24 07:17:46;;;;;;;;;;;16.20;88.70;;;;;;6119017;23;20335;-79
2022/09/24 07:20:13;;;;;;;;;;;16.20;89.70;;;;;;6121751;23;19925;-76
2022/09/24 07:22:39;;;;;;;;;;;16.10;90.40;;;;;;6121265;23;20356;-72
2022/09/24 07:25:07;;;;;;;;;;;16.00;90.70;;;;;;6121867;23;20317;-73
2022/09/24 07:27:34;;;;;;;;;;;15.90;91.30;;;;;;6121872;23;19905;-73
2022/09/24 07:30:01;;;;;;;;;;;15.80;91.40;;;;;;6121783;23;19909;-73
2022/09/24 07:32:27;;;;;;;;;;;15.80;91.60;;;;;;6120784;23;19905;-71
2022/09/24 07:34:54;;;;;;;;;;;15.70;91.50;;;;;;6121833;23;19960;-72
2022/09/24 07:37:20;;;;;;;;;;;15.70;91.70;;;;;;6121124;23;19987;-74
2022/09/24 07:39:47;;;;;;;;;;;15.70;91.80;;;;;;6121591;23;19909;-73
2022/09/24 07:42:13;;;;;;;;;;;15.70;92.00;;;;;;6121986;23;19955;-73
2022/09/24 07:44:40;;;;;;;;;;;15.70;92.10;;;;;;6121552;23;19916;-72
2022/09/24 07:47:07;;;;;;;;;;;15.70;91.50;;;;;;6121668;23;19900;-73
2022/09/24 07:49:33;;;;;;;;;;;15.70;91.60;;;;;;6121039;23;19905;-73
2022/09/24 07:52:00;;;;;;;;;;;15.70;91.50;;;;;;6122078;23;19983;-72
2022/09/24 07:54:28;;;;;;;;;;;15.60;91.80;;;;;;6096413;23;19919;-72
2022/09/24 07:56:55;;;;;;;;;;;15.70;92.30;;;;;;6119996;23;19915;-72
2022/09/24 07:59:22;;;;;;;;;;;15.70;92.70;;;;;;6118360;23;19904;-73
2022/09/24 08:01:49;;;;;;;;;;;15.70;92.80;;;;;;6119530;23;19959;-73
2022/09/24 08:04:17;;;;;;;;;;;15.70;93.00;;;;;;6120096;23;19975;-72
2022/09/24 08:06:43;;;;;;;;;;;15.70;93.00;;;;;;6095904;23;19907;-73
2022/09/24 08:09:10;;;;;;;;;;;15.70;93.00;;;;;;6119650;23;19905;-72
2022/09/24 08:11:38;;;;;;;;;;;15.70;93.00;;;;;;6120123;23;19943;-72
2022/09/24 08:14:05;;;;;;;;;;;15.70;92.70;;;;;;6121372;23;19908;-73
2022/09/24 08:16:31;;;;;;;;;;;15.70;92.90;;;;;;6118998;23;20036;-72
2022/09/24 08:18:59;;;;;;;;;;;15.70;92.90;;;;;;6121974;23;19908;-72
2022/09/24 08:21:27;;;;;;;;;;;15.70;92.70;;;;;;6094678;23;20265;-72
2022/09/24 08:23:54;;;;;;;;;;;15.80;92.70;;;;;;6121456;23;20325;-71
2022/09/24 08:26:21;;;;;;;;;;;15.80;92.60;;;;;;6120315;23;19905;-74
2022/09/24 08:28:48;;;;;;;;;;;15.80;92.90;;;;;;6120433;23;19913;-72
2022/09/24 08:31:15;;;;;;;;;;;15.90;92.90;;;;;;6119852;23;19901;-72
2022/09/24 08:33:42;;;;;;;;;;;15.80;92.70;;;;;;6094727;23;19900;-70
2022/09/24 08:36:09;;;;;;;;;;;15.80;92.50;;;;;;6121048;23;19909;-71
2022/09/24 08:38:36;;;;;;;;;;;15.90;92.70;;;;;;6120483;23;19944;-70
2022/09/24 08:41:31;;;;;;;;;;;15.90;92.60;;;;;;6095362;23;19928;-71
2022/09/24 08:44:01;;;;;;;;;;;15.80;92.70;;;;;;6053014;23;20478;-71
2022/09/24 08:49:20;;;;;;;;;;;15.90;92.70;;;;;;6119319;23;20359;-72
2022/09/24 08:52:07;;;;;;;;;;;15.80;92.50;;;;;;6119578;23;19911;-71
2022/09/24 08:54:34;;;;;;;;;;;15.90;92.50;;;;;;6120137;23;19909;-74
2022/09/24 08:57:02;;;;;;;;;;;15.80;92.30;;;;;;6094725;23;20291;-73
2022/09/24 08:59:32;;;;;;;;;;;15.80;92.30;;;;;;6094615;23;19900;-74
2022/09/24 09:01:59;;;;;;;;;;;15.80;92.20;;;;;;6094865;23;19904;-74
2022/09/24 09:04:26;;;;;;;;;;;15.80;92.40;;;;;;6120976;23;19995;-73
2022/09/24 09:07:08;;;;;;;;;;;15.80;92.20;;;;;;6095064;23;19905;-74
2022/09/24 09:09:34;;;;;;;;;;;15.80;92.10;;;;;;6094893;23;19901;-74
2022/09/24 09:12:02;;;;;;;;;;;15.80;92.00;;;;;;6119166;23;19905;-74
2022/09/24 09:14:35;;;;;;;;;;;15.70;91.90;;;;;;6096031;23;19987;-74
2022/09/24 09:17:02;;;;;;;;;;;15.80;91.90;;;;;;6118658;23;19912;-74
2022/09/24 09:19:35;;;;;;;;;;;15.80;91.90;;;;;;6093527;23;19909;-74
2022/09/24 09:22:06;;;;;;;;;;;15.70;91.70;;;;;;6094682;23;19905;-74
2022/09/24 09:24:45;;;;;;;;;;;15.80;91.60;;;;;;6094206;23;19904;-74
2022/09/24 09:27:15;;;;;;;;;;;15.70;91.80;;;;;;6121107;23;19905;-69
2022/09/24 09:29:47;;;;;;;;;;;15.70;91.60;;;;;;6120709;23;19975;-70
2022/09/24 09:32:22;;;;;;;;;;;15.70;91.70;;;;;;6120934;23;19916;-70
2022/09/24 09:34:58;;;;;;;;;;;15.70;91.80;;;;;;6120526;23;19956;-72
2022/09/24 09:37:43;;;;;;;;;;;15.70;91.80;;;;;;6094508;23;19944;-73
2022/09/24 09:40:27;;;;;;;;;;;15.70;91.80;;;;;;6121213;23;19905;-72
2022/09/24 09:43:01;;;;;;;;;;;15.70;91.90;;;;;;6120634;23;19904;-71
2022/09/24 09:45:28;;;;;;;;;;;15.60;91.90;;;;;;6095134;23;19940;-70
2022/09/24 09:47:55;;;;;;;;;;;15.60;91.90;;;;;;6122144;23;19932;-71
2022/09/24 09:50:39;;;;;;;;;;;15.60;92.00;;;;;;6122639;23;20413;-73
2022/09/24 09:53:05;;;;;;;;;;;15.50;91.90;;;;;;6095908;23;20232;-72
2022/09/24 09:55:35;;;;;;;;;;;15.50;92.10;;;;;;6096264;23;20011;-73
2022/09/24 09:58:14;;;;;;;;;;;15.50;92.10;;;;;;6072313;23;19905;-73
2022/09/24 10:00:41;;;;;;;;;;;15.50;92.10;;;;;;6097074;23;20000;-72
2022/09/24 10:03:24;;;;;;;;;;;15.40;92.00;;;;;;6096995;23;19943;-72
2022/09/24 10:06:16;;;;;;;;;;;15.40;92.20;;;;;;6095237;23;19905;-74
2022/09/24 10:08:43;;;;;;;;;;;15.40;92.00;;;;;;6077813;23;19920;-73
2022/09/24 10:11:13;;;;;;;;;;;15.40;92.20;;;;;;6122440;23;19963;-73
2022/09/24 10:13:39;;;;;;;;;;;15.40;92.00;;;;;;6072027;23;19909;-74
2022/09/24 10:16:07;;;;;;;;;;;15.40;92.00;;;;;;6121960;23;19984;-72
2022/09/24 10:18:35;;;;;;;;;;;15.40;92.00;;;;;;6092918;23;20309;-73
2022/09/24 10:21:07;;;;;;;;;;;15.40;91.90;;;;;;6096090;23;20313;-73
2022/09/24 10:23:38;;;;;;;;;;;15.40;92.10;;;;;;6123027;23;19904;-74
2022/09/24 10:26:05;;;;;;;;;;;15.30;92.00;;;;;;6096229;23;19901;-73
2022/09/24 10:31:23;;;;;;;;;;;15.30;92.00;;;;;;6122536;23;20252;-71
2022/09/24 10:33:51;;;;;;;;;;;15.30;91.90;;;;;;6122195;23;20583;-71
2022/09/24 10:36:18;;;;;;;;;;;15.30;91.90;;;;;;6096023;23;20671;-73
2022/09/24 10:38:44;;;;;;;;;;;15.20;91.90;;;;;;6122453;23;19905;-71
2022/09/24 10:41:27;;;;;;;;;;;15.30;92.00;;;;;;6122006;23;19905;-72
2022/09/24 10:43:54;;;;;;;;;;;15.30;91.80;;;;;;6121209;23;19905;-72
2022/09/24 10:46:50;;;;;;;;;;;15.30;91.90;;;;;;6095200;23;19924;-70
2022/09/24 10:49:22;;;;;;;;;;;15.20;91.90;;;;;;6096326;23;19908;-71
2022/09/24 10:51:58;;;;;;;;;;;15.20;92.10;;;;;;6121895;23;20417;-71
2022/09/24 10:54:48;;;;;;;;;;;15.20;92.30;;;;;;6122037;23;19912;-71
2022/09/24 10:57:24;;;;;;;;;;;15.20;92.10;;;;;;6122013;23;19909;-71
2022/09/24 11:00:09;;;;;;;;;;;15.20;92.30;;;;;;6096078;23;19920;-72
2022/09/24 11:02:47;;;;;;;;;;;15.20;92.20;;;;;;6121533;23;20313;-71
2022/09/24 11:05:18;;;;;;;;;;;15.20;92.40;;;;;;6121664;23;19971;-73
2022/09/24 11:07:45;;;;;;;;;;;15.10;92.30;;;;;;6096442;23;19912;-73
2022/09/24 11:10:35;;;;;;;;;;;15.20;92.50;;;;;;6096252;23;19951;-75
2022/09/24 11:13:06;;;;;;;;;;;15.20;92.50;;;;;;6097317;23;19905;-71
2022/09/24 11:15:40;;;;;;;;;;;15.20;92.60;;;;;;6095887;23;19916;-77
2022/09/24 11:18:30;;;;;;;;;;;15.20;92.60;;;;;;6094038;23;19939;-71
2022/09/24 11:21:09;;;;;;;;;;;15.20;92.70;;;;;;6108370;23;19936;-70
2022/09/24 11:23:44;;;;;;;;;;;15.20;92.50;;;;;;6095250;23;20331;-72
2022/09/24 11:26:19;;;;;;;;;;;15.20;92.50;;;;;;6121156;23;19904;-72
2022/09/24 11:29:04;;;;;;;;;;;15.10;92.40;;;;;;6095743;23;19905;-71
2022/09/24 11:31:40;;;;;;;;;;;15.10;92.30;;;;;;6121820;23;19921;-71
2022/09/24 11:34:19;;;;;;;;;;;15.00;92.40;;;;;;6096441;23;20327;-73
2022/09/24 11:37:04;;;;;;;;;;;15.00;92.40;;;;;;6095346;23;19909;-72
2022/09/24 11:39:31;;;;;;;;;;;15.00;92.30;;;;;;6122185;23;20218;-70
2022/09/24 11:42:02;;;;;;;;;;;14.90;92.30;;;;;;6121740;23;19967;-70
2022/09/24 11:45:04;;;;;;;;;;;14.90;92.40;;;;;;6120457;23;19904;-71
2022/09/24 11:47:31;;;;;;;;;;;14.80;92.20;;;;;;6003320;23;19910;-71
2022/09/24 11:49:57;;;;;;;;;;;14.90;92.20;;;;;;6098021;23;19909;-70
2022/09/24 11:52:33;;;;;;;;;;;14.80;92.10;;;;;;6120764;23;19905;-69
2022/09/24 11:55:01;;;;;;;;;;;14.80;92.00;;;;;;6118931;23;19960;-67
2022/09/24 11:57:29;;;;;;;;;;;14.80;92.10;;;;;;6094513;23;20453;-68
2022/09/24 12:00:00;;;;;;;;;;;14.80;92.00;;;;;;6121221;23;19987;-69
2022/09/24 12:02:30;;;;;;;;;;;14.80;92.00;;;;;;6095959;23;19938;-69
2022/09/24 12:05:02;;;;;;;;;;;14.80;92.00;;;;;;6121553;23;20240;-68
2022/09/24 12:07:32;;;;;;;;;;;14.70;91.90;;;;;;6121753;23;19998;-70
2022/09/24 12:10:17;;;;;;;;;;;14.80;92.00;;;;;;6072764;23;19904;-68
2022/09/24 12:12:44;;;;;;;;;;;14.80;92.00;;;;;;6121176;23;19927;-68
2022/09/24 12:15:10;;;;;;;;;;;14.70;92.10;;;;;;6095031;23;20276;-72
2022/09/24 12:17:52;;;;;;;;;;;14.70;92.20;;;;;;6119577;23;19971;-68
2022/09/24 12:20:42;;;;;;;;;;;14.70;92.10;;;;;;6121800;23;19909;-69
2022/09/24 12:23:09;;;;;;;;;;;14.70;92.40;;;;;;6105576;23;20320;-70
2022/09/24 12:25:44;;;;;;;;;;;14.70;92.30;;;;;;6120891;23;20325;-70
2022/09/24 12:32:52;;;;;;;;;;;14.70;92.40;;;;;;6121819;23;20679;-70
2022/09/24 12:34:00;;;;;;;;;;;14.70;92.50;;;;;;6121847;23;19912;-70
2022/09/24 12:36:29;;;;;;;;;;;14.70;92.50;;;;;;6120829;23;19965;-68
2022/09/24 12:39:03;;;;;;;;;;;14.70;92.40;;;;;;6124262;23;20048;-68
2022/09/24 12:41:33;;;;;;;;;;;14.70;92.60;;;;;;6098891;23;19938;-69
2022/09/24 12:43:59;;;;;;;;;;;14.70;92.60;;;;;;6124691;23;20342;-68
2022/09/24 12:46:30;;;;;;;;;;;14.70;92.60;;;;;;6123046;23;19935;-69
2022/09/24 12:48:57;;;;;;;;;;;14.70;92.50;;;;;;6098198;23;19928;-68
2022/09/24 12:51:24;;;;;;;;;;;14.70;92.50;;;;;;6124369;23;19908;-69
2022/09/24 12:53:57;;;;;;;;;;;14.70;92.40;;;;;;6098657;23;19901;-69
2022/09/24 12:56:25;;;;;;;;;;;14.70;92.50;;;;;;6098761;23;19963;-69
2022/09/24 12:58:52;;;;;;;;;;;14.70;92.50;;;;;;6098741;23;19901;-68
2022/09/24 13:01:25;;;;;;;;;;;14.70;92.40;;;;;;6098922;23;19904;-69
2022/09/24 13:04:10;;;;;;;;;;;14.70;92.40;;;;;;6097785;23;19944;-69
2022/09/24 13:06:37;;;;;;;;;;;14.70;92.30;;;;;;6124448;23;19905;-69
2022/09/24 13:09:21;;;;;;;;;;;14.70;92.20;;;;;;6124651;23;19901;-69
2022/09/24 13:11:47;;;;;;;;;;;14.70;92.20;;;;;;6098290;23;19956;-68
2022/09/24 13:14:14;;;;;;;;;;;14.70;92.10;;;;;;6098314;23;20252;-68
2022/09/24 13:16:41;;;;;;;;;;;14.70;92.20;;;;;;6123787;23;19912;-68
2022/09/24 13:19:37;;;;;;;;;;;14.70;92.20;;;;;;6098175;23;19900;-68
2022/09/24 13:22:04;;;;;;;;;;;14.70;92.10;;;;;;6074062;23;20301;-68
2022/09/24 13:24:35;;;;;;;;;;;14.70;92.10;;;;;;6096738;23;19960;-67
2022/09/24 13:27:08;;;;;;;;;;;14.70;92.00;;;;;;6124084;23;19901;-70
2022/09/24 13:29:38;;;;;;;;;;;14.80;92.10;;;;;;6124731;23;19923;-71
2022/09/24 13:32:05;;;;;;;;;;;14.80;92.00;;;;;;6124569;23;20325;-70
2022/09/24 13:34:31;;;;;;;;;;;14.80;92.00;;;;;;6123337;23;19920;-70
2022/09/24 13:37:16;;;;;;;;;;;14.80;92.00;;;;;;6124910;23;20300;-68
2022/09/24 13:39:54;;;;;;;;;;;14.80;91.90;;;;;;6124539;23;20271;-70
2022/09/24 13:42:31;;;;;;;;;;;14.80;92.00;;;;;;6098834;23;19905;-68
2022/09/24 13:44:59;;;;;;;;;;;14.80;91.90;;;;;;6098157;23;19919;-68
2022/09/24 13:47:25;;;;;;;;;;;14.70;92.00;;;;;;6124133;23;19904;-68
2022/09/24 13:49:52;;;;;;;;;;;14.80;91.90;;;;;;6124875;23;20001;-68
2022/09/24 13:52:27;;;;;;;;;;;14.70;91.90;;;;;;6123728;23;19953;-68
2022/09/24 13:54:55;;;;;;;;;;;14.70;92.10;;;;;;6123132;23;20272;-68
2022/09/24 13:57:22;;;;;;;;;;;14.70;92.10;;;;;;6124754;23;19991;-68
2022/09/24 13:59:48;;;;;;;;;;;14.70;92.10;;;;;;6124305;23;19959;-68
2022/09/24 14:02:25;;;;;;;;;;;14.70;92.10;;;;;;6097741;23;19916;-69
2022/09/24 14:04:57;;;;;;;;;;;14.70;92.10;;;;;;6123595;23;19908;-68
2022/09/24 14:07:25;;;;;;;;;;;14.70;92.20;;;;;;6098206;23;19955;-68
2022/09/24 14:10:01;;;;;;;;;;;14.70;92.30;;;;;;6098281;23;19905;-68
2022/09/24 14:12:27;;;;;;;;;;;14.70;92.20;;;;;;6123564;23;19928;-71
2022/09/24 14:14:56;;;;;;;;;;;14.70;92.10;;;;;;6124214;23;19957;-71
2022/09/24 14:17:23;;;;;;;;;;;14.70;92.00;;;;;;6098578;23;19908;-71
2022/09/24 14:19:53;;;;;;;;;;;14.70;92.30;;;;;;6098976;23;20309;-69
2022/09/24 14:22:23;;;;;;;;;;;14.70;92.00;;;;;;6124478;23;19901;-68
2022/09/24 14:25:16;;;;;;;;;;;14.70;92.00;;;;;;6123744;23;20280;-68
2022/09/24 14:27:43;;;;;;;;;;;14.70;92.20;;;;;;6078297;23;19901;-68
2022/09/24 14:30:36;;;;;;;;;;;14.70;92.10;;;;;;6073833;23;19907;-68
2022/09/24 14:33:04;;;;;;;;;;;14.70;92.10;;;;;;6119818;23;19908;-67
2022/09/24 14:35:31;;;;;;;;;;;14.70;91.90;;;;;;6099800;23;19921;-68
2022/09/24 14:38:00;;;;;;;;;;;14.70;92.00;;;;;;6100457;23;19991;-68
2022/09/24 14:40:26;;;;;;;;;;;14.70;92.00;;;;;;6125892;23;19907;-68
2022/09/24 14:42:56;;;;;;;;;;;14.70;92.10;;;;;;6125701;23;19980;-68
2022/09/24 14:45:39;;;;;;;;;;;14.70;91.80;;;;;;6126134;23;20321;-68
2022/09/24 14:48:16;;;;;;;;;;;14.70;91.80;;;;;;6125819;23;19900;-69
2022/09/24 14:50:42;;;;;;;;;;;14.70;91.80;;;;;;6100399;23;19901;-69
2022/09/24 14:53:26;;;;;;;;;;;14.60;92.00;;;;;;6126266;23;19948;-69
2022/09/24 14:55:52;;;;;;;;;;;14.70;92.00;;;;;;6124961;23;19908;-69
2022/09/24 14:58:22;;;;;;;;;;;14.70;91.90;;;;;;6126180;23;19901;-69
2022/09/24 15:00:54;;;;;;;;;;;14.70;92.00;;;;;;6125610;23;19912;-69
2022/09/24 15:03:23;;;;;;;;;;;14.70;92.10;;;;;;6100699;23;19959;-69
2022/09/24 15:05:49;;;;;;;;;;;14.70;92.10;;;;;;6125605;23;20288;-69
2022/09/24 15:08:19;;;;;;;;;;;14.70;92.20;;;;;;6125688;23;19901;-69
2022/09/24 15:11:15;;;;;;;;;;;14.70;92.30;;;;;;6125182;23;19909;-69
2022/09/24 15:13:42;;;;;;;;;;;14.70;92.30;;;;;;6102220;23;20318;-69
2022/09/24 15:16:18;;;;;;;;;;;14.70;92.20;;;;;;6125232;23;19956;-69
2022/09/24 15:18:46;;;;;;;;;;;14.70;92.30;;;;;;6125663;23;20309;-69
2022/09/24 15:21:13;;;;;;;;;;;14.70;92.30;;;;;;6099619;23;20217;-69
2022/09/24 15:23:39;;;;;;;;;;;14.60;92.30;;;;;;6122940;23;19908;-68
2022/09/24 15:26:06;;;;;;;;;;;14.60;92.30;;;;;;6125295;23;19936;-69
2022/09/24 15:28:33;;;;;;;;;;;14.60;92.20;;;;;;6126036;23;19908;-69
2022/09/24 15:30:59;;;;;;;;;;;14.50;92.20;;;;;;6125417;23;19983;-69
2022/09/24 15:33:26;;;;;;;;;;;14.50;92.30;;;;;;6124406;23;19901;-68
2022/09/24 15:35:53;;;;;;;;;;;14.50;92.30;;;;;;6125192;23;19909;-69
2022/09/24 15:38:19;;;;;;;;;;;14.50;92.20;;;;;;6099457;23;19948;-69
2022/09/24 15:40:50;;;;;;;;;;;14.40;92.10;;;;;;6125412;23;19908;-69
2022/09/24 15:43:18;;;;;;;;;;;14.40;92.00;;;;;;6124760;23;20508;-69
2022/09/24 15:45:45;;;;;;;;;;;14.40;91.90;;;;;;6124322;23;20388;-69
2022/09/24 15:48:11;;;;;;;;;;;14.30;92.10;;;;;;6125134;23;20233;-68
2022/09/24 15:50:38;;;;;;;;;;;14.30;91.90;;;;;;6125978;23;19908;-69
2022/09/24 15:53:05;;;;;;;;;;;14.20;92.00;;;;;;6099670;23;19905;-69
2022/09/24 15:55:31;;;;;;;;;;;14.30;91.90;;;;;;6099397;23;19917;-69
2022/09/24 15:57:58;;;;;;;;;;;14.20;91.80;;;;;;6098707;23;19955;-70
2022/09/24 16:00:25;;;;;;;;;;;14.20;91.80;;;;;;6124923;23;20332;-69
2022/09/24 16:02:55;;;;;;;;;;;14.20;91.70;;;;;;6125359;23;19901;-69
2022/09/24 16:05:21;;;;;;;;;;;14.20;91.80;;;;;;6097893;23;19944;-69
2022/09/24 16:07:48;;;;;;;;;;;14.20;91.90;;;;;;6124287;23;19907;-69
2022/09/24 16:10:15;;;;;;;;;;;14.10;91.90;;;;;;6124353;23;19901;-70
2022/09/24 16:12:41;;;;;;;;;;;14.10;91.80;;;;;;6099389;23;19900;-69
2022/09/24 16:15:11;;;;;;;;;;;14.10;91.90;;;;;;6124861;23;19927;-69
2022/09/24 16:17:37;;;;;;;;;;;14.10;91.90;;;;;;6124675;23;19912;-69
2022/09/24 16:20:04;;;;;;;;;;;14.00;91.80;;;;;;6124809;23;19901;-69
2022/09/24 16:22:31;;;;;;;;;;;14.10;91.80;;;;;;6125072;23;20324;-69
2022/09/24 16:24:57;;;;;;;;;;;14.00;91.80;;;;;;6125112;23;19939;-70
2022/09/24 16:27:24;;;;;;;;;;;14.00;91.80;;;;;;6097490;23;19908;-70
2022/09/24 16:29:50;;;;;;;;;;;14.00;91.80;;;;;;6124605;23;19929;-69